Time;durP1;ratioP1;P1;durP2;ratioP2;P2;SDS_P1;SDS_P2;PMS_P1;PMS_P2;Temp;Humidity;BMP_temperature;BMP_pressure;BME280_temperature;BME280_humidity;BME280_pressure;Samples;Min_cycle;Max_cycle;Signal;HPM_P1;HPM_P2
2021/12/27 00:04:38;;;;;;;3.38;1.80;;;11.60;42.60;;;;;;20658165;28;20047;-76
2021/12/27 00:14:39;;;;;;;4.30;1.67;;;11.60;42.60;;;;;;20656953;28;20377;-73
2021/12/27 00:24:39;;;;;;;4.20;1.60;;;11.60;42.70;;;;;;20656998;28;20488;-73
2021/12/27 00:34:40;;;;;;;2.50;1.40;;;11.50;42.80;;;;;;20622476;28;20043;-73
2021/12/27 00:44:41;;;;;;;4.22;1.70;;;11.50;42.90;;;;;;20655230;28;20034;-72
2021/12/27 00:54:41;;;;;;;3.88;1.83;;;11.50;42.90;;;;;;20621599;28;20133;-74
2021/12/27 01:04:42;;;;;;;5.97;2.70;;;11.50;43.00;;;;;;20653323;28;20081;-73
2021/12/27 01:14:55;;;;;;;4.78;1.98;;;11.50;43.10;;;;;;20652876;28;20121;-77
2021/12/27 01:24:56;;;;;;;5.90;2.42;;;11.40;43.10;;;;;;20639171;28;20046;-72
2021/12/27 01:34:56;;;;;;;5.50;2.45;;;11.40;43.20;;;;;;20651138;28;20100;-73
2021/12/27 01:44:57;;;;;;;4.72;2.25;;;11.40;43.40;;;;;;20634048;28;20038;-74
2021/12/27 01:54:57;;;;;;;2.22;1.75;;;11.40;43.40;;;;;;20651249;28;20069;-77
2021/12/27 02:04:58;;;;;;;3.65;1.92;;;11.30;43.40;;;;;;20632475;28;20051;-74
2021/12/27 02:14:59;;;;;;;6.00;2.80;;;11.30;43.40;;;;;;20664222;28;20031;-73
2021/12/27 02:24:59;;;;;;;5.03;2.40;;;11.30;43.60;;;;;;20631799;28;20125;-73
2021/12/27 02:35:00;;;;;;;6.28;2.70;;;11.20;43.60;;;;;;20631324;28;20034;-74
2021/12/27 02:45:00;;;;;;;5.25;1.90;;;11.20;43.70;;;;;;20614831;28;20038;-73
2021/12/27 02:55:01;;;;;;;5.88;2.38;;;11.20;43.80;;;;;;20661329;28;20173;-73
2021/12/27 03:05:03;;;;;;;5.15;2.90;;;11.20;43.80;;;;;;20661496;28;20500;-78
2021/12/27 03:15:05;;;;;;;5.80;2.83;;;11.10;43.90;;;;;;20663675;28;20392;-73
2021/12/27 03:25:07;;;;;;;8.07;2.28;;;11.10;43.90;;;;;;20645242;28;20097;-76
2021/12/27 03:35:11;;;;;;;4.53;1.90;;;11.10;44.00;;;;;;20660925;28;20046;-74
2021/12/27 03:45:12;;;;;;;5.78;2.55;;;11.10;44.10;;;;;;20644443;28;20038;-73
2021/12/27 03:55:12;;;;;;;9.00;3.03;;;11.00;44.10;;;;;;20676335;28;20034;-74
2021/12/27 04:05:13;;;;;;;6.85;3.03;;;11.00;44.20;;;;;;20693971;28;20485;-77
2021/12/27 04:15:13;;;;;;;7.17;2.83;;;11.00;44.30;;;;;;20707109;28;20121;-75
2021/12/27 04:25:14;;;;;;;6.13;2.17;;;11.00;44.40;;;;;;20657030;28;20329;-75
2021/12/27 04:35:16;;;;;;;6.45;2.90;;;10.90;44.40;;;;;;20656011;28;20066;-73
2021/12/27 04:45:17;;;;;;;5.55;2.90;;;10.90;44.50;;;;;;20671721;28;20045;-75
2021/12/27 04:55:17;;;;;;;7.75;3.35;;;10.80;44.60;;;;;;20654271;28;20042;-74
2021/12/27 05:05:18;;;;;;;7.78;3.42;;;10.80;44.80;;;;;;20669890;28;20087;-73
2021/12/27 05:15:19;;;;;;;5.95;2.72;;;10.90;44.70;;;;;;20652931;28;20038;-78
2021/12/27 05:25:19;;;;;;;5.87;2.60;;;12.10;43.50;;;;;;20651592;28;20112;-75
2021/12/27 05:35:20;;;;;;;7.88;3.58;;;13.10;40.80;;;;;;20648380;28;20776;-73
2021/12/27 05:45:21;;;;;;;6.88;3.40;;;14.30;38.90;;;;;;20650716;28;20337;-74
2021/12/27 05:55:21;;;;;;;7.22;3.00;;;15.30;37.10;;;;;;20633802;28;20124;-74
2021/12/27 06:05:22;;;;;;;6.07;2.95;;;15.90;36.00;;;;;;20633146;28;20034;-74
2021/12/27 06:15:23;;;;;;;5.45;3.03;;;16.10;35.50;;;;;;20648526;28;20049;-75
2021/12/27 06:25:23;;;;;;;6.85;3.08;;;16.40;34.80;;;;;;20631657;28;20062;-74
2021/12/27 06:35:24;;;;;;;7.40;3.67;;;16.70;34.30;;;;;;20630280;28;20566;-75
2021/12/27 06:45:25;;;;;;;6.07;3.05;;;15.80;35.00;;;;;;20646588;28;20053;-76
2021/12/27 06:55:25;;;;;;;7.82;2.95;;;14.80;36.60;;;;;;20662597;28;20161;-79
2021/12/27 07:05:26;;;;;;;5.88;2.90;;;13.70;38.10;;;;;;20646028;28;20139;-77
2021/12/27 07:15:26;;;;;;;7.53;3.13;;;13.00;39.40;;;;;;20645582;28;20441;-75
2021/12/27 07:25:27;;;;;;;6.77;3.40;;;12.50;40.50;;;;;;20629190;28;20313;-75
2021/12/27 07:35:28;;;;;;;7.07;3.13;;;12.10;41.20;;;;;;20661290;28;20281;-75
2021/12/27 07:45:28;;;;;;;6.53;3.00;;;11.90;41.80;;;;;;20654409;28;20061;-74
2021/12/27 07:55:29;;;;;;;8.43;3.20;;;11.80;42.90;;;;;;20678841;28;20061;-77
2021/12/27 08:05:30;;;;;;;5.85;2.83;;;11.70;42.60;;;;;;20659667;28;20325;-75
2021/12/27 08:15:30;;;;;;;10.00;3.58;;;11.60;42.80;;;;;;20659124;28;20042;-75
2021/12/27 08:25:31;;;;;;;6.27;2.93;;;11.50;43.10;;;;;;20673854;28;20096;-74
2021/12/27 08:35:32;;;;;;;7.72;3.20;;;11.40;43.40;;;;;;20673571;28;20265;-74
2021/12/27 08:45:32;;;;;;;8.02;3.08;;;11.40;43.60;;;;;;20655957;28;20480;-79
2021/12/27 08:55:34;;;;;;;6.00;2.87;;;11.30;43.90;;;;;;20655192;28;20034;-74
2021/12/27 09:05:35;;;;;;;5.95;3.25;;;11.10;44.10;;;;;;20671019;28;20289;-78
2021/12/27 09:15:35;;;;;;;6.70;3.38;;;11.00;44.50;;;;;;20670754;28;20453;-76
2021/12/27 09:25:36;;;;;;;10.77;3.42;;;10.90;44.70;;;;;;20670140;28;20038;-74
2021/12/27 09:35:37;;;;;;;4.85;2.35;;;10.90;44.90;;;;;;20654675;28;20042;-74
2021/12/27 09:45:37;;;;;;;6.07;2.75;;;10.80;45.00;;;;;;20654222;28;20101;-74
2021/12/27 09:55:38;;;;;;;6.65;2.83;;;10.80;45.10;;;;;;20637640;28;20074;-75
2021/12/27 10:05:38;;;;;;;5.07;2.35;;;10.70;45.30;;;;;;20637818;28;20125;-75
2021/12/27 10:15:40;;;;;;;6.18;2.72;;;10.70;45.50;;;;;;20651929;28;20034;-76
2021/12/27 10:25:41;;;;;;;7.80;3.20;;;10.60;45.60;;;;;;20651915;28;20125;-74
2021/12/27 10:35:43;;;;;;;8.15;2.38;;;10.60;45.80;;;;;;20651450;28;20040;-77
2021/12/27 10:45:47;;;;;;;7.70;3.53;;;10.50;45.90;;;;;;20634922;28;20046;-77
2021/12/27 10:55:48;;;;;;;5.97;2.67;;;10.40;46.20;;;;;;20635490;28;20042;-75
2021/12/27 11:05:48;;;;;;;6.88;3.40;;;10.40;46.40;;;;;;20648890;28;20041;-77
2021/12/27 11:15:49;;;;;;;8.20;2.47;;;10.60;46.20;;;;;;20634612;28;20523;-77
2021/12/27 11:26:18;;;;;;;6.32;2.83;;;11.80;44.20;;;;;;21077663;22;20907;-82
2021/12/27 11:36:19;;;;;;;6.90;2.80;;;13.00;42.10;;;;;;20619333;28;20413;-80
2021/12/27 11:46:24;;;;;;;6.25;2.50;;;13.90;40.40;;;;;;20568725;28;20118;-80
2021/12/27 11:56:37;;;;;;;6.82;2.45;;;14.90;38.50;;;;;;20583064;28;20039;-80
2021/12/27 12:06:41;;;;;;;5.32;2.90;;;15.70;37.00;;;;;;20583570;28;20155;-79
2021/12/27 12:16:46;;;;;;;6.47;2.90;;;16.10;36.20;;;;;;20581517;28;20043;-79
2021/12/27 12:27:04;;;;;;;5.25;3.15;;;16.40;35.60;;;;;;20597056;28;20042;-80
2021/12/27 12:37:06;;;;;;;4.75;2.50;;;16.70;35.10;;;;;;20566658;28;20452;-79
2021/12/27 12:47:07;;;;;;;5.55;3.13;;;16.60;35.20;;;;;;20578890;28;20453;-78
2021/12/27 12:57:15;;;;;;;4.13;2.38;;;15.50;36.20;;;;;;20562838;28;20043;-79
2021/12/27 13:07:31;;;;;;;3.67;2.17;;;14.50;37.70;;;;;;20577354;28;20030;-79
2021/12/27 13:17:37;;;;;;;5.80;2.67;;;13.70;39.10;;;;;;20563320;28;20442;-79
2021/12/27 13:27:38;;;;;;;6.63;2.55;;;13.20;40.20;;;;;;20560253;28;20045;-77
2021/12/27 13:37:39;;;;;;;5.15;2.33;;;12.90;40.70;;;;;;20559477;28;20542;-78
2021/12/27 13:47:54;;;;;;;7.47;2.60;;;12.80;41.20;;;;;;20575422;28;20061;-78
2021/12/27 13:57:55;;;;;;;4.45;2.72;;;12.70;41.40;;;;;;20574584;28;20305;-78
2021/12/27 14:08:08;;;;;;;5.03;2.42;;;12.70;41.50;;;;;;20556764;28;20358;-78
2021/12/27 14:18:10;;;;;;;3.95;2.03;;;12.80;41.70;;;;;;20557129;28;20048;-78
2021/12/27 14:28:14;;;;;;;3.90;2.13;;;13.00;41.50;;;;;;20588541;28;20043;-77
2021/12/27 14:38:20;;;;;;;3.10;2.33;;;12.90;41.60;;;;;;20557723;28;20492;-78
2021/12/27 14:48:20;;;;;;;8.53;2.50;;;12.70;41.90;;;;;;20571536;28;20034;-80
2021/12/27 14:58:21;;;;;;;5.75;2.40;;;12.60;42.20;;;;;;20554278;28;20489;-78
2021/12/27 15:08:23;;;;;;;3.72;2.05;;;12.40;42.50;;;;;;20584825;28;20045;-78
2021/12/27 15:18:23;;;;;;;3.13;2.05;;;12.30;42.80;;;;;;20566789;28;20082;-78
2021/12/27 15:28:24;;;;;;;4.63;1.90;;;12.30;43.10;;;;;;20582015;28;20465;-78
2021/12/27 15:38:24;;;;;;;4.07;2.20;;;12.10;43.30;;;;;;20565449;28;20349;-78
2021/12/27 15:48:25;;;;;;;3.95;1.80;;;12.50;42.90;;;;;;20549958;28;20031;-79
2021/12/27 15:58:26;;;;;;;2.83;1.77;;;13.50;41.40;;;;;;20581266;28;20042;-78
2021/12/27 16:08:26;;;;;;;3.80;2.13;;;14.30;40.00;;;;;;20592856;28;20089;-78
2021/12/27 16:18:27;;;;;;;4.85;1.95;;;15.30;38.30;;;;;;20578086;28;20551;-78
2021/12/27 16:28:28;;;;;;;4.78;2.33;;;16.00;37.10;;;;;;20577847;28;20161;-79
2021/12/27 16:38:28;;;;;;;3.55;2.10;;;16.40;36.30;;;;;;20560884;28;20065;-79
2021/12/27 16:48:31;;;;;;;4.35;1.63;;;16.70;35.70;;;;;;20560570;28;20041;-79
2021/12/27 16:58:32;;;;;;;4.28;2.25;;;16.80;35.40;;;;;;20592562;28;20039;-79
2021/12/27 17:08:32;;;;;;;4.82;2.60;;;15.80;36.60;;;;;;20575315;28;20441;-79
2021/12/27 17:18:33;;;;;;;4.80;2.28;;;14.70;38.10;;;;;;20557217;28;20516;-79
2021/12/27 17:28:35;;;;;;;3.83;1.77;;;13.80;39.60;;;;;;20574384;28;20034;-79
2021/12/27 17:38:36;;;;;;;3.40;1.73;;;13.10;40.90;;;;;;20588572;28;20313;-78
2021/12/27 17:48:36;;;;;;;3.83;1.98;;;12.70;41.90;;;;;;20587820;28;20031;-78
2021/12/27 17:58:39;;;;;;;2.67;1.48;;;12.50;42.40;;;;;;20570686;28;20042;-79
2021/12/27 18:08:40;;;;;;;2.28;1.50;;;12.50;42.70;;;;;;20569755;28;20039;-78
2021/12/27 18:18:42;;;;;;;3.17;1.85;;;12.50;42.90;;;;;;20569877;28;20062;-78
2021/12/27 18:28:43;;;;;;;3.30;1.67;;;12.50;43.00;;;;;;20553164;28;20039;-78
2021/12/27 18:38:44;;;;;;;2.65;1.40;;;12.50;43.10;;;;;;20551764;28;20080;-78
2021/12/27 18:48:45;;;;;;;3.28;1.60;;;12.50;43.10;;;;;;20599823;28;20023;-79
2021/12/27 18:58:48;;;;;;;2.83;1.55;;;12.60;43.20;;;;;;20551134;28;20031;-78
2021/12/27 19:08:49;;;;;;;3.88;1.92;;;12.60;43.10;;;;;;20551782;28;20057;-79
2021/12/27 19:18:50;;;;;;;3.50;1.60;;;12.60;43.20;;;;;;20550771;28;20043;-80
2021/12/27 19:28:50;;;;;;;2.83;1.48;;;12.60;43.20;;;;;;20566567;28;20196;-78
2021/12/27 19:38:51;;;;;;;3.88;1.65;;;12.60;43.30;;;;;;20586756;28;20101;-78
2021/12/27 19:48:52;;;;;;;2.58;1.45;;;12.60;43.40;;;;;;20565172;28;20038;-78
2021/12/27 19:58:53;;;;;;;2.27;1.20;;;12.50;43.40;;;;;;20595995;28;20481;-77
2021/12/27 20:08:54;;;;;;;2.28;1.45;;;12.50;43.50;;;;;;20579519;28;20282;-78
2021/12/27 20:18:55;;;;;;;2.80;1.50;;;12.50;43.60;;;;;;20546267;28;20061;-78
2021/12/27 20:28:55;;;;;;;2.55;1.45;;;12.50;43.70;;;;;;20593590;28;20390;-79
2021/12/27 20:38:57;;;;;;;3.85;1.67;;;12.50;43.80;;;;;;20561587;28;20105;-78
2021/12/27 20:48:58;;;;;;;3.45;1.60;;;12.40;43.80;;;;;;20559846;28;20485;-79
2021/12/27 20:59:00;;;;;;;2.35;1.20;;;12.40;43.90;;;;;;20576160;28;20050;-78
2021/12/27 21:09:01;;;;;;;3.40;1.40;;;12.40;44.00;;;;;;20559057;28;20086;-79
2021/12/27 21:19:01;;;;;;;2.92;1.60;;;12.40;44.10;;;;;;20574176;28;20034;-79
2021/12/27 21:29:02;;;;;;;3.83;1.60;;;12.40;44.20;;;;;;20557804;28;20525;-79
2021/12/27 21:39:03;;;;;;;2.30;1.48;;;12.30;44.20;;;;;;20589170;28;20043;-80
2021/12/27 21:49:04;;;;;;;2.93;1.23;;;12.30;45.00;;;;;;20588752;28;20548;-79
2021/12/27 21:59:05;;;;;;;2.42;1.40;;;12.30;44.30;;;;;;20555746;28;20294;-79
2021/12/27 22:09:06;;;;;;;3.55;1.50;;;12.30;44.40;;;;;;20554981;28;20041;-81
2021/12/27 22:19:06;;;;;;;3.45;1.40;;;12.30;44.50;;;;;;20569939;28;20046;-78
2021/12/27 22:29:07;;;;;;;2.63;1.60;;;12.20;44.60;;;;;;20554091;28;20044;-79
2021/12/27 22:39:08;;;;;;;3.17;1.52;;;12.20;44.60;;;;;;20568784;28;20046;-79
2021/12/27 22:49:09;;;;;;;3.08;1.30;;;12.30;44.80;;;;;;20569183;28;20030;-80
2021/12/27 22:59:09;;;;;;;3.92;1.42;;;12.20;44.80;;;;;;20567662;28;20074;-79
2021/12/27 23:09:10;;;;;;;4.68;1.48;;;12.20;44.80;;;;;;20552110;28;20109;-79
2021/12/27 23:19:11;;;;;;;3.22;1.77;;;12.10;44.90;;;;;;20581241;28;20100;-79
2021/12/27 23:29:11;;;;;;;3.03;1.42;;;12.20;45.00;;;;;;20583112;28;20050;-79
2021/12/27 23:39:12;;;;;;;3.50;2.08;;;12.10;45.00;;;;;;20598890;28;20086;-79
2021/12/27 23:49:13;;;;;;;2.92;1.73;;;12.10;45.10;;;;;;20597908;28;20034;-79
2021/12/27 23:59:13;;;;;;;2.05;1.38;;;12.10;45.20;;;;;;20597467;28;20046;-79
